sensor_id;sensor_type;location;lat;lon;timestamp;P1;durP1;ratioP1;P2;durP2;ratioP2
23129;SDS011;11734;51.046;13.778;2023-07-02T00:01:52;2.13;;;1.93;;
23129;SDS011;11734;51.046;13.778;2023-07-02T00:04:19;2.60;;;1.73;;
23129;SDS011;11734;51.046;13.778;2023-07-02T00:06:47;2.27;;;1.60;;
23129;SDS011;11734;51.046;13.778;2023-07-02T00:09:14;1.80;;;1.70;;
23129;SDS011;11734;51.046;13.778;2023-07-02T00:11:43;2.20;;;2.00;;
23129;SDS011;11734;51.046;13.778;2023-07-02T00:14:10;1.80;;;1.60;;
23129;SDS011;11734;51.046;13.778;2023-07-02T00:16:38;2.43;;;1.60;;
23129;SDS011;11734;51.046;13.778;2023-07-02T00:19:06;1.90;;;1.53;;
23129;SDS011;11734;51.046;13.778;2023-07-02T00:21:33;1.70;;;1.40;;
23129;SDS011;11734;51.046;13.778;2023-07-02T00:24:03;1.50;;;1.40;;
23129;SDS011;11734;51.046;13.778;2023-07-02T00:26:30;2.00;;;1.60;;
23129;SDS011;11734;51.046;13.778;2023-07-02T00:28:58;1.50;;;1.40;;
23129;SDS011;11734;51.046;13.778;2023-07-02T00:31:25;1.67;;;1.40;;
23129;SDS011;11734;51.046;13.778;2023-07-02T00:33:54;3.17;;;1.40;;
23129;SDS011;11734;51.046;13.778;2023-07-02T00:36:22;2.27;;;1.30;;
23129;SDS011;11734;51.046;13.778;2023-07-02T00:38:49;1.50;;;1.40;;
23129;SDS011;11734;51.046;13.778;2023-07-02T00:41:16;1.40;;;1.30;;
23129;SDS011;11734;51.046;13.778;2023-07-02T00:43:44;1.77;;;1.40;;
23129;SDS011;11734;51.046;13.778;2023-07-02T00:46:12;1.60;;;1.40;;
23129;SDS011;11734;51.046;13.778;2023-07-02T00:48:52;1.60;;;1.50;;
23129;SDS011;11734;51.046;13.778;2023-07-02T00:51:20;1.57;;;1.47;;
23129;SDS011;11734;51.046;13.778;2023-07-02T00:53:49;1.43;;;1.33;;
23129;SDS011;11734;51.046;13.778;2023-07-02T00:56:16;1.47;;;1.37;;
23129;SDS011;11734;51.046;13.778;2023-07-02T00:58:46;2.93;;;1.40;;
23129;SDS011;11734;51.046;13.778;2023-07-02T01:01:18;1.30;;;1.20;;
23129;SDS011;11734;51.046;13.778;2023-07-02T01:06:29;1.67;;;1.57;;
23129;SDS011;11734;51.046;13.778;2023-07-02T01:08:58;1.40;;;1.30;;
23129;SDS011;11734;51.046;13.778;2023-07-02T01:11:26;1.30;;;1.20;;
23129;SDS011;11734;51.046;13.778;2023-07-02T01:13:55;1.67;;;1.23;;
23129;SDS011;11734;51.046;13.778;2023-07-02T01:16:23;1.53;;;1.33;;
23129;SDS011;11734;51.046;13.778;2023-07-02T01:18:50;1.23;;;1.13;;
23129;SDS011;11734;51.046;13.778;2023-07-02T01:21:21;1.57;;;1.40;;
23129;SDS011;11734;51.046;13.778;2023-07-02T01:23:50;1.77;;;1.67;;
23129;SDS011;11734;51.046;13.778;2023-07-02T01:26:18;1.50;;;1.40;;
23129;SDS011;11734;51.046;13.778;2023-07-02T01:28:45;1.70;;;1.60;;
23129;SDS011;11734;51.046;13.778;2023-07-02T01:31:12;1.40;;;1.30;;
23129;SDS011;11734;51.046;13.778;2023-07-02T01:33:40;1.63;;;1.50;;
23129;SDS011;11734;51.046;13.778;2023-07-02T01:36:07;1.37;;;1.27;;
23129;SDS011;11734;51.046;13.778;2023-07-02T01:38:35;1.67;;;1.40;;
23129;SDS011;11734;51.046;13.778;2023-07-02T01:41:02;1.90;;;1.80;;
23129;SDS011;11734;51.046;13.778;2023-07-02T01:43:30;1.70;;;1.60;;
23129;SDS011;11734;51.046;13.778;2023-07-02T01:45:57;1.50;;;1.40;;
23129;SDS011;11734;51.046;13.778;2023-07-02T01:48:25;1.20;;;1.13;;
23129;SDS011;11734;51.046;13.778;2023-07-02T01:50:53;1.40;;;1.30;;
23129;SDS011;11734;51.046;13.778;2023-07-02T01:53:20;1.53;;;1.43;;
23129;SDS011;11734;51.046;13.778;2023-07-02T01:55:47;1.50;;;1.40;;
23129;SDS011;11734;51.046;13.778;2023-07-02T01:58:15;1.50;;;1.40;;
23129;SDS011;11734;51.046;13.778;2023-07-02T02:00:42;1.63;;;1.53;;
23129;SDS011;11734;51.046;13.778;2023-07-02T02:03:10;1.40;;;1.30;;
23129;SDS011;11734;51.046;13.778;2023-07-02T02:05:38;1.23;;;1.17;;
23129;SDS011;11734;51.046;13.778;2023-07-02T02:08:05;1.60;;;1.50;;
23129;SDS011;11734;51.046;13.778;2023-07-02T02:10:32;1.63;;;1.53;;
23129;SDS011;11734;51.046;13.778;2023-07-02T02:13:00;1.30;;;1.20;;
23129;SDS011;11734;51.046;13.778;2023-07-02T02:15:27;1.33;;;1.23;;
23129;SDS011;11734;51.046;13.778;2023-07-02T02:17:54;1.20;;;1.10;;
23129;SDS011;11734;51.046;13.778;2023-07-02T02:20:22;1.77;;;1.67;;
23129;SDS011;11734;51.046;13.778;2023-07-02T02:22:49;1.50;;;1.40;;
23129;SDS011;11734;51.046;13.778;2023-07-02T02:25:16;1.50;;;1.40;;
23129;SDS011;11734;51.046;13.778;2023-07-02T02:27:44;1.43;;;1.33;;
23129;SDS011;11734;51.046;13.778;2023-07-02T02:30:11;1.40;;;1.30;;
23129;SDS011;11734;51.046;13.778;2023-07-02T02:32:39;1.63;;;1.53;;
23129;SDS011;11734;51.046;13.778;2023-07-02T02:35:09;1.37;;;1.27;;
23129;SDS011;11734;51.046;13.778;2023-07-02T02:37:37;1.40;;;1.30;;
23129;SDS011;11734;51.046;13.778;2023-07-02T02:40:07;1.73;;;1.63;;
23129;SDS011;11734;51.046;13.778;2023-07-02T02:42:39;1.50;;;1.40;;
23129;SDS011;11734;51.046;13.778;2023-07-02T02:45:07;1.43;;;1.33;;
23129;SDS011;11734;51.046;13.778;2023-07-02T02:47:34;1.40;;;1.30;;
23129;SDS011;11734;51.046;13.778;2023-07-02T02:50:02;1.30;;;1.20;;
23129;SDS011;11734;51.046;13.778;2023-07-02T02:52:30;1.70;;;1.60;;
23129;SDS011;11734;51.046;13.778;2023-07-02T02:54:57;1.40;;;1.30;;
23129;SDS011;11734;51.046;13.778;2023-07-02T02:57:25;1.57;;;1.47;;
23129;SDS011;11734;51.046;13.778;2023-07-02T02:59:52;2.10;;;1.53;;
23129;SDS011;11734;51.046;13.778;2023-07-02T03:02:19;1.63;;;1.53;;
23129;SDS011;11734;51.046;13.778;2023-07-02T03:04:47;1.63;;;1.53;;
23129;SDS011;11734;51.046;13.778;2023-07-02T03:07:15;2.47;;;1.40;;
23129;SDS011;11734;51.046;13.778;2023-07-02T03:09:43;1.40;;;1.30;;
23129;SDS011;11734;51.046;13.778;2023-07-02T03:12:10;1.50;;;1.40;;
23129;SDS011;11734;51.046;13.778;2023-07-02T03:14:38;1.37;;;1.27;;
23129;SDS011;11734;51.046;13.778;2023-07-02T03:17:05;1.63;;;1.50;;
23129;SDS011;11734;51.046;13.778;2023-07-02T03:19:32;2.00;;;1.80;;
23129;SDS011;11734;51.046;13.778;2023-07-02T03:22:00;1.80;;;1.63;;
23129;SDS011;11734;51.046;13.778;2023-07-02T03:24:27;2.30;;;1.67;;
23129;SDS011;11734;51.046;13.778;2023-07-02T03:26:54;1.63;;;1.50;;
23129;SDS011;11734;51.046;13.778;2023-07-02T03:29:21;1.50;;;1.40;;
23129;SDS011;11734;51.046;13.778;2023-07-02T03:31:49;1.50;;;1.40;;
23129;SDS011;11734;51.046;13.778;2023-07-02T03:34:16;1.40;;;1.30;;
23129;SDS011;11734;51.046;13.778;2023-07-02T03:36:43;1.70;;;1.60;;
23129;SDS011;11734;51.046;13.778;2023-07-02T03:39:11;1.77;;;1.57;;
23129;SDS011;11734;51.046;13.778;2023-07-02T03:41:38;1.67;;;1.57;;
23129;SDS011;11734;51.046;13.778;2023-07-02T03:44:05;1.80;;;1.70;;
23129;SDS011;11734;51.046;13.778;2023-07-02T03:46:32;1.50;;;1.40;;
23129;SDS011;11734;51.046;13.778;2023-07-02T03:49:00;1.43;;;1.33;;
23129;SDS011;11734;51.046;13.778;2023-07-02T03:51:29;1.63;;;1.53;;
23129;SDS011;11734;51.046;13.778;2023-07-02T03:53:58;2.83;;;1.40;;
23129;SDS011;11734;51.046;13.778;2023-07-02T03:56:25;1.50;;;1.40;;
23129;SDS011;11734;51.046;13.778;2023-07-02T03:58:52;1.80;;;1.70;;
23129;SDS011;11734;51.046;13.778;2023-07-02T04:01:20;1.50;;;1.40;;
23129;SDS011;11734;51.046;13.778;2023-07-02T04:03:53;2.13;;;1.67;;
23129;SDS011;11734;51.046;13.778;2023-07-02T04:06:21;1.90;;;1.80;;
23129;SDS011;11734;51.046;13.778;2023-07-02T04:08:49;1.80;;;1.70;;
23129;SDS011;11734;51.046;13.778;2023-07-02T04:11:16;1.67;;;1.57;;
23129;SDS011;11734;51.046;13.778;2023-07-02T04:13:43;1.90;;;1.80;;
23129;SDS011;11734;51.046;13.778;2023-07-02T04:16:11;2.20;;;2.10;;
23129;SDS011;11734;51.046;13.778;2023-07-02T04:18:38;2.30;;;1.70;;
23129;SDS011;11734;51.046;13.778;2023-07-02T04:21:06;2.03;;;1.90;;
23129;SDS011;11734;51.046;13.778;2023-07-02T04:23:33;2.30;;;1.90;;
23129;SDS011;11734;51.046;13.778;2023-07-02T04:26:01;2.23;;;2.10;;
23129;SDS011;11734;51.046;13.778;2023-07-02T04:28:48;1.70;;;1.60;;
23129;SDS011;11734;51.046;13.778;2023-07-02T04:31:15;1.70;;;1.60;;
23129;SDS011;11734;51.046;13.778;2023-07-02T04:33:43;2.20;;;2.00;;
23129;SDS011;11734;51.046;13.778;2023-07-02T04:36:10;2.20;;;2.00;;
23129;SDS011;11734;51.046;13.778;2023-07-02T04:38:38;1.87;;;1.77;;
23129;SDS011;11734;51.046;13.778;2023-07-02T04:41:06;2.80;;;2.10;;
23129;SDS011;11734;51.046;13.778;2023-07-02T04:43:36;2.30;;;2.10;;
23129;SDS011;11734;51.046;13.778;2023-07-02T04:46:03;2.03;;;1.93;;
23129;SDS011;11734;51.046;13.778;2023-07-02T04:48:34;1.93;;;1.83;;
23129;SDS011;11734;51.046;13.778;2023-07-02T04:51:02;2.20;;;2.10;;
23129;SDS011;11734;51.046;13.778;2023-07-02T04:53:29;2.40;;;2.20;;
23129;SDS011;11734;51.046;13.778;2023-07-02T04:55:57;2.43;;;2.03;;
23129;SDS011;11734;51.046;13.778;2023-07-02T04:58:24;2.10;;;1.97;;
23129;SDS011;11734;51.046;13.778;2023-07-02T05:00:52;2.20;;;2.00;;
23129;SDS011;11734;51.046;13.778;2023-07-02T05:03:19;2.30;;;2.10;;
23129;SDS011;11734;51.046;13.778;2023-07-02T05:05:46;2.23;;;2.10;;
23129;SDS011;11734;51.046;13.778;2023-07-02T05:08:14;2.40;;;2.20;;
23129;SDS011;11734;51.046;13.778;2023-07-02T05:10:42;2.97;;;2.30;;
23129;SDS011;11734;51.046;13.778;2023-07-02T05:13:09;2.40;;;2.20;;
23129;SDS011;11734;51.046;13.778;2023-07-02T05:15:54;3.73;;;2.77;;
23129;SDS011;11734;51.046;13.778;2023-07-02T05:18:22;3.87;;;2.70;;
23129;SDS011;11734;51.046;13.778;2023-07-02T05:20:49;2.53;;;2.33;;
23129;SDS011;11734;51.046;13.778;2023-07-02T05:23:17;2.60;;;2.40;;
23129;SDS011;11734;51.046;13.778;2023-07-02T05:25:44;2.50;;;2.30;;
23129;SDS011;11734;51.046;13.778;2023-07-02T05:28:12;2.20;;;2.00;;
23129;SDS011;11734;51.046;13.778;2023-07-02T05:30:39;2.53;;;2.33;;
23129;SDS011;11734;51.046;13.778;2023-07-02T05:33:08;2.50;;;2.30;;
23129;SDS011;11734;51.046;13.778;2023-07-02T05:35:35;2.70;;;2.50;;
23129;SDS011;11734;51.046;13.778;2023-07-02T05:38:03;2.50;;;2.30;;
23129;SDS011;11734;51.046;13.778;2023-07-02T05:40:30;2.60;;;2.40;;
23129;SDS011;11734;51.046;13.778;2023-07-02T05:42:58;2.40;;;2.20;;
23129;SDS011;11734;51.046;13.778;2023-07-02T05:45:25;2.47;;;2.10;;
23129;SDS011;11734;51.046;13.778;2023-07-02T05:47:53;2.50;;;2.30;;
23129;SDS011;11734;51.046;13.778;2023-07-02T05:50:21;4.97;;;2.60;;
23129;SDS011;11734;51.046;13.778;2023-07-02T05:52:48;2.50;;;2.30;;
23129;SDS011;11734;51.046;13.778;2023-07-02T05:55:15;2.20;;;2.00;;
23129;SDS011;11734;51.046;13.778;2023-07-02T05:57:43;1.90;;;1.80;;
23129;SDS011;11734;51.046;13.778;2023-07-02T06:00:11;2.20;;;2.00;;
23129;SDS011;11734;51.046;13.778;2023-07-02T06:02:38;2.53;;;2.33;;
23129;SDS011;11734;51.046;13.778;2023-07-02T06:05:06;3.03;;;2.30;;
23129;SDS011;11734;51.046;13.778;2023-07-02T06:07:33;3.10;;;2.03;;
23129;SDS011;11734;51.046;13.778;2023-07-02T06:10:03;2.10;;;1.90;;
23129;SDS011;11734;51.046;13.778;2023-07-02T06:12:30;2.30;;;2.10;;
23129;SDS011;11734;51.046;13.778;2023-07-02T06:14:58;1.90;;;1.80;;
23129;SDS011;11734;51.046;13.778;2023-07-02T06:17:25;3.10;;;2.27;;
23129;SDS011;11734;51.046;13.778;2023-07-02T06:19:52;2.20;;;2.00;;
23129;SDS011;11734;51.046;13.778;2023-07-02T06:22:20;2.37;;;2.17;;
23129;SDS011;11734;51.046;13.778;2023-07-02T06:24:47;2.50;;;2.30;;
23129;SDS011;11734;51.046;13.778;2023-07-02T06:27:14;3.97;;;2.37;;
23129;SDS011;11734;51.046;13.778;2023-07-02T06:29:42;3.10;;;2.80;;
23129;SDS011;11734;51.046;13.778;2023-07-02T06:32:09;2.33;;;2.13;;
23129;SDS011;11734;51.046;13.778;2023-07-02T06:34:36;3.67;;;2.67;;
23129;SDS011;11734;51.046;13.778;2023-07-02T06:37:04;2.63;;;2.43;;
23129;SDS011;11734;51.046;13.778;2023-07-02T06:39:31;2.67;;;2.47;;
23129;SDS011;11734;51.046;13.778;2023-07-02T06:41:58;2.60;;;2.40;;
23129;SDS011;11734;51.046;13.778;2023-07-02T06:44:29;2.67;;;2.47;;
23129;SDS011;11734;51.046;13.778;2023-07-02T06:46:56;3.00;;;2.70;;
23129;SDS011;11734;51.046;13.778;2023-07-02T06:49:24;3.23;;;2.60;;
23129;SDS011;11734;51.046;13.778;2023-07-02T06:51:51;3.10;;;2.80;;
23129;SDS011;11734;51.046;13.778;2023-07-02T06:54:18;3.10;;;2.90;;
23129;SDS011;11734;51.046;13.778;2023-07-02T06:56:46;2.80;;;2.60;;
23129;SDS011;11734;51.046;13.778;2023-07-02T06:59:18;2.63;;;2.43;;
23129;SDS011;11734;51.046;13.778;2023-07-02T07:01:46;3.03;;;2.83;;
23129;SDS011;11734;51.046;13.778;2023-07-02T07:04:13;2.23;;;2.03;;
23129;SDS011;11734;51.046;13.778;2023-07-02T07:06:41;3.80;;;2.60;;
23129;SDS011;11734;51.046;13.778;2023-07-02T07:09:08;2.93;;;2.60;;
23129;SDS011;11734;51.046;13.778;2023-07-02T07:11:36;2.97;;;2.67;;
23129;SDS011;11734;51.046;13.778;2023-07-02T07:14:03;2.90;;;2.70;;
23129;SDS011;11734;51.046;13.778;2023-07-02T07:16:30;2.80;;;2.50;;
23129;SDS011;11734;51.046;13.778;2023-07-02T07:18:58;2.27;;;2.07;;
23129;SDS011;11734;51.046;13.778;2023-07-02T07:21:25;2.53;;;2.33;;
23129;SDS011;11734;51.046;13.778;2023-07-02T07:23:52;2.43;;;2.17;;
23129;SDS011;11734;51.046;13.778;2023-07-02T07:26:37;2.53;;;2.33;;
23129;SDS011;11734;51.046;13.778;2023-07-02T07:29:05;2.60;;;2.40;;
23129;SDS011;11734;51.046;13.778;2023-07-02T07:31:32;2.93;;;2.57;;
23129;SDS011;11734;51.046;13.778;2023-07-02T07:33:59;3.10;;;2.53;;
23129;SDS011;11734;51.046;13.778;2023-07-02T07:36:27;3.03;;;2.83;;
23129;SDS011;11734;51.046;13.778;2023-07-02T07:38:54;3.27;;;3.07;;
23129;SDS011;11734;51.046;13.778;2023-07-02T07:41:25;3.10;;;2.80;;
23129;SDS011;11734;51.046;13.778;2023-07-02T07:43:52;3.07;;;2.87;;
23129;SDS011;11734;51.046;13.778;2023-07-02T07:46:19;3.30;;;3.00;;
23129;SDS011;11734;51.046;13.778;2023-07-02T07:48:50;3.20;;;3.00;;
23129;SDS011;11734;51.046;13.778;2023-07-02T07:51:17;3.10;;;2.90;;
23129;SDS011;11734;51.046;13.778;2023-07-02T07:53:45;3.13;;;2.93;;
23129;SDS011;11734;51.046;13.778;2023-07-02T07:56:12;3.00;;;2.80;;
23129;SDS011;11734;51.046;13.778;2023-07-02T07:58:40;2.70;;;2.50;;
23129;SDS011;11734;51.046;13.778;2023-07-02T08:01:08;2.60;;;2.40;;
23129;SDS011;11734;51.046;13.778;2023-07-02T08:03:39;3.27;;;2.47;;
23129;SDS011;11734;51.046;13.778;2023-07-02T08:06:06;2.50;;;2.30;;
23129;SDS011;11734;51.046;13.778;2023-07-02T08:08:35;2.87;;;2.20;;
23129;SDS011;11734;51.046;13.778;2023-07-02T08:11:03;2.57;;;2.37;;
23129;SDS011;11734;51.046;13.778;2023-07-02T08:13:30;2.67;;;2.47;;
23129;SDS011;11734;51.046;13.778;2023-07-02T08:15:58;2.93;;;2.20;;
23129;SDS011;11734;51.046;13.778;2023-07-02T08:18:25;2.23;;;2.13;;
23129;SDS011;11734;51.046;13.778;2023-07-02T08:20:53;2.87;;;2.53;;
23129;SDS011;11734;51.046;13.778;2023-07-02T08:23:20;3.23;;;2.43;;
23129;SDS011;11734;51.046;13.778;2023-07-02T08:25:48;2.67;;;2.47;;
23129;SDS011;11734;51.046;13.778;2023-07-02T08:28:15;2.50;;;2.30;;
23129;SDS011;11734;51.046;13.778;2023-07-02T08:30:42;2.43;;;2.23;;
23129;SDS011;11734;51.046;13.778;2023-07-02T08:33:10;2.00;;;1.90;;
23129;SDS011;11734;51.046;13.778;2023-07-02T08:35:37;2.13;;;2.03;;
23129;SDS011;11734;51.046;13.778;2023-07-02T08:38:05;2.30;;;2.10;;
23129;SDS011;11734;51.046;13.778;2023-07-02T08:40:32;2.70;;;1.90;;
23129;SDS011;11734;51.046;13.778;2023-07-02T08:42:59;3.10;;;2.50;;
23129;SDS011;11734;51.046;13.778;2023-07-02T08:45:28;2.83;;;2.37;;
23129;SDS011;11734;51.046;13.778;2023-07-02T08:47:55;3.13;;;2.40;;
23129;SDS011;11734;51.046;13.778;2023-07-02T08:50:43;3.03;;;2.30;;
23129;SDS011;11734;51.046;13.778;2023-07-02T08:53:10;3.13;;;2.50;;
23129;SDS011;11734;51.046;13.778;2023-07-02T08:55:38;2.47;;;2.27;;
23129;SDS011;11734;51.046;13.778;2023-07-02T08:58:06;2.00;;;1.90;;
23129;SDS011;11734;51.046;13.778;2023-07-02T09:00:33;2.20;;;2.00;;
23129;SDS011;11734;51.046;13.778;2023-07-02T09:03:11;2.20;;;2.00;;
23129;SDS011;11734;51.046;13.778;2023-07-02T09:05:51;1.77;;;1.67;;
23129;SDS011;11734;51.046;13.778;2023-07-02T09:08:22;2.10;;;1.90;;
23129;SDS011;11734;51.046;13.778;2023-07-02T09:10:50;2.87;;;1.90;;
23129;SDS011;11734;51.046;13.778;2023-07-02T09:13:17;2.07;;;1.97;;
23129;SDS011;11734;51.046;13.778;2023-07-02T09:15:45;2.63;;;2.30;;
23129;SDS011;11734;51.046;13.778;2023-07-02T09:18:16;2.07;;;1.90;;
23129;SDS011;11734;51.046;13.778;2023-07-02T09:20:44;1.90;;;1.80;;
23129;SDS011;11734;51.046;13.778;2023-07-02T09:23:12;2.00;;;1.90;;
23129;SDS011;11734;51.046;13.778;2023-07-02T09:25:40;2.30;;;1.70;;
23129;SDS011;11734;51.046;13.778;2023-07-02T09:28:17;1.80;;;1.70;;
23129;SDS011;11734;51.046;13.778;2023-07-02T09:30:57;1.87;;;1.77;;
23129;SDS011;11734;51.046;13.778;2023-07-02T09:33:25;2.10;;;1.90;;
23129;SDS011;11734;51.046;13.778;2023-07-02T09:35:54;1.90;;;1.80;;
23129;SDS011;11734;51.046;13.778;2023-07-02T09:38:22;2.10;;;1.90;;
23129;SDS011;11734;51.046;13.778;2023-07-02T09:40:50;2.07;;;1.97;;
23129;SDS011;11734;51.046;13.778;2023-07-02T09:43:18;2.63;;;1.97;;
23129;SDS011;11734;51.046;13.778;2023-07-02T09:45:47;1.70;;;1.60;;
23129;SDS011;11734;51.046;13.778;2023-07-02T09:48:15;1.80;;;1.70;;
23129;SDS011;11734;51.046;13.778;2023-07-02T09:50:43;2.30;;;1.90;;
23129;SDS011;11734;51.046;13.778;2023-07-02T09:53:11;1.97;;;1.73;;
23129;SDS011;11734;51.046;13.778;2023-07-02T09:55:39;1.80;;;1.70;;
23129;SDS011;11734;51.046;13.778;2023-07-02T09:58:06;1.67;;;1.57;;
23129;SDS011;11734;51.046;13.778;2023-07-02T10:00:34;1.73;;;1.63;;
23129;SDS011;11734;51.046;13.778;2023-07-02T10:03:02;1.67;;;1.57;;
23129;SDS011;11734;51.046;13.778;2023-07-02T10:05:30;2.60;;;1.80;;
23129;SDS011;11734;51.046;13.778;2023-07-02T10:08:00;2.00;;;1.80;;
23129;SDS011;11734;51.046;13.778;2023-07-02T10:10:40;2.37;;;2.07;;
23129;SDS011;11734;51.046;13.778;2023-07-02T10:13:07;1.93;;;1.83;;
23129;SDS011;11734;51.046;13.778;2023-07-02T10:15:34;1.83;;;1.73;;
23129;SDS011;11734;51.046;13.778;2023-07-02T10:18:25;1.90;;;1.80;;
23129;SDS011;11734;51.046;13.778;2023-07-02T10:20:53;1.90;;;1.80;;
23129;SDS011;11734;51.046;13.778;2023-07-02T10:23:20;2.13;;;1.93;;
23129;SDS011;11734;51.046;13.778;2023-07-02T10:26:09;2.43;;;1.90;;
23129;SDS011;11734;51.046;13.778;2023-07-02T10:28:36;1.90;;;1.80;;
23129;SDS011;11734;51.046;13.778;2023-07-02T10:31:03;2.73;;;1.93;;
23129;SDS011;11734;51.046;13.778;2023-07-02T10:33:31;1.90;;;1.80;;
23129;SDS011;11734;51.046;13.778;2023-07-02T10:35:58;1.90;;;1.80;;
23129;SDS011;11734;51.046;13.778;2023-07-02T10:38:25;2.00;;;1.90;;
23129;SDS011;11734;51.046;13.778;2023-07-02T10:40:54;2.27;;;1.80;;
23129;SDS011;11734;51.046;13.778;2023-07-02T10:43:26;1.70;;;1.60;;
23129;SDS011;11734;51.046;13.778;2023-07-02T10:45:56;1.90;;;1.80;;
23129;SDS011;11734;51.046;13.778;2023-07-02T10:48:26;1.97;;;1.80;;
23129;SDS011;11734;51.046;13.778;2023-07-02T10:50:53;1.90;;;1.80;;
23129;SDS011;11734;51.046;13.778;2023-07-02T10:53:21;1.90;;;1.80;;
23129;SDS011;11734;51.046;13.778;2023-07-02T10:55:55;2.43;;;1.73;;
23129;SDS011;11734;51.046;13.778;2023-07-02T10:58:24;2.53;;;1.70;;
23129;SDS011;11734;51.046;13.778;2023-07-02T11:00:51;2.27;;;1.80;;
23129;SDS011;11734;51.046;13.778;2023-07-02T11:03:20;1.70;;;1.60;;
23129;SDS011;11734;51.046;13.778;2023-07-02T11:05:48;1.80;;;1.70;;
23129;SDS011;11734;51.046;13.778;2023-07-02T11:08:16;1.83;;;1.53;;
23129;SDS011;11734;51.046;13.778;2023-07-02T11:10:44;1.80;;;1.70;;
23129;SDS011;11734;51.046;13.778;2023-07-02T11:13:15;1.80;;;1.70;;
23129;SDS011;11734;51.046;13.778;2023-07-02T11:15:43;1.70;;;1.60;;
23129;SDS011;11734;51.046;13.778;2023-07-02T11:18:13;2.03;;;1.93;;
23129;SDS011;11734;51.046;13.778;2023-07-02T11:20:42;1.90;;;1.80;;
23129;SDS011;11734;51.046;13.778;2023-07-02T11:25:58;3.30;;;2.40;;
23129;SDS011;11734;51.046;13.778;2023-07-02T11:28:27;2.37;;;1.67;;
23129;SDS011;11734;51.046;13.778;2023-07-02T11:30:55;2.00;;;1.70;;
23129;SDS011;11734;51.046;13.778;2023-07-02T11:36:20;1.70;;;1.60;;
23129;SDS011;11734;51.046;13.778;2023-07-02T11:38:48;2.47;;;1.50;;
23129;SDS011;11734;51.046;13.778;2023-07-02T11:41:17;1.70;;;1.60;;
23129;SDS011;11734;51.046;13.778;2023-07-02T11:43:47;1.60;;;1.50;;
23129;SDS011;11734;51.046;13.778;2023-07-02T11:46:14;1.53;;;1.43;;
23129;SDS011;11734;51.046;13.778;2023-07-02T11:48:42;2.00;;;1.80;;
23129;SDS011;11734;51.046;13.778;2023-07-02T11:51:09;1.70;;;1.60;;
23129;SDS011;11734;51.046;13.778;2023-07-02T11:53:37;1.93;;;1.77;;
23129;SDS011;11734;51.046;13.778;2023-07-02T11:56:05;1.90;;;1.80;;
23129;SDS011;11734;51.046;13.778;2023-07-02T11:58:32;2.00;;;1.80;;
23129;SDS011;11734;51.046;13.778;2023-07-02T12:01:00;1.60;;;1.50;;
23129;SDS011;11734;51.046;13.778;2023-07-02T12:03:27;3.80;;;2.17;;
23129;SDS011;11734;51.046;13.778;2023-07-02T12:05:54;1.70;;;1.60;;
23129;SDS011;11734;51.046;13.778;2023-07-02T12:08:22;1.87;;;1.70;;
23129;SDS011;11734;51.046;13.778;2023-07-02T12:10:49;2.47;;;2.00;;
23129;SDS011;11734;51.046;13.778;2023-07-02T12:13:17;1.87;;;1.70;;
23129;SDS011;11734;51.046;13.778;2023-07-02T12:15:44;1.77;;;1.63;;
23129;SDS011;11734;51.046;13.778;2023-07-02T12:18:12;1.87;;;1.77;;
23129;SDS011;11734;51.046;13.778;2023-07-02T12:20:39;2.00;;;1.90;;
23129;SDS011;11734;51.046;13.778;2023-07-02T12:23:07;2.00;;;1.50;;
23129;SDS011;11734;51.046;13.778;2023-07-02T12:25:34;3.13;;;1.60;;
23129;SDS011;11734;51.046;13.778;2023-07-02T12:28:02;2.30;;;2.10;;
23129;SDS011;11734;51.046;13.778;2023-07-02T12:30:29;2.13;;;1.93;;
23129;SDS011;11734;51.046;13.778;2023-07-02T12:32:57;2.73;;;1.90;;
23129;SDS011;11734;51.046;13.778;2023-07-02T12:35:24;2.20;;;2.00;;
23129;SDS011;11734;51.046;13.778;2023-07-02T12:37:52;2.30;;;2.17;;
23129;SDS011;11734;51.046;13.778;2023-07-02T12:40:19;4.73;;;2.20;;
23129;SDS011;11734;51.046;13.778;2023-07-02T12:42:47;2.20;;;2.00;;
23129;SDS011;11734;51.046;13.778;2023-07-02T12:45:16;2.20;;;2.00;;
23129;SDS011;11734;51.046;13.778;2023-07-02T12:47:47;2.40;;;2.20;;
23129;SDS011;11734;51.046;13.778;2023-07-02T12:50:14;2.00;;;1.80;;
23129;SDS011;11734;51.046;13.778;2023-07-02T12:52:42;2.40;;;1.80;;
23129;SDS011;11734;51.046;13.778;2023-07-02T12:55:09;1.67;;;1.57;;
23129;SDS011;11734;51.046;13.778;2023-07-02T12:57:36;1.80;;;1.70;;
23129;SDS011;11734;51.046;13.778;2023-07-02T13:00:04;4.30;;;1.70;;
23129;SDS011;11734;51.046;13.778;2023-07-02T13:02:33;1.97;;;1.80;;
23129;SDS011;11734;51.046;13.778;2023-07-02T13:05:12;2.03;;;1.83;;
23129;SDS011;11734;51.046;13.778;2023-07-02T13:07:40;2.00;;;1.77;;
23129;SDS011;11734;51.046;13.778;2023-07-02T13:10:07;2.20;;;2.00;;
23129;SDS011;11734;51.046;13.778;2023-07-02T13:12:35;2.30;;;1.80;;
23129;SDS011;11734;51.046;13.778;2023-07-02T13:15:02;2.10;;;1.90;;
23129;SDS011;11734;51.046;13.778;2023-07-02T13:17:30;2.60;;;1.93;;
23129;SDS011;11734;51.046;13.778;2023-07-02T13:19:57;2.80;;;2.30;;
23129;SDS011;11734;51.046;13.778;2023-07-02T13:22:24;3.10;;;2.30;;
23129;SDS011;11734;51.046;13.778;2023-07-02T13:24:52;3.27;;;2.40;;
23129;SDS011;11734;51.046;13.778;2023-07-02T13:27:19;3.00;;;2.17;;
23129;SDS011;11734;51.046;13.778;2023-07-02T13:29:46;3.33;;;2.43;;
23129;SDS011;11734;51.046;13.778;2023-07-02T13:32:13;2.87;;;2.47;;
23129;SDS011;11734;51.046;13.778;2023-07-02T13:34:41;3.00;;;2.00;;
23129;SDS011;11734;51.046;13.778;2023-07-02T13:37:08;3.17;;;2.87;;
23129;SDS011;11734;51.046;13.778;2023-07-02T13:39:36;2.50;;;2.30;;
23129;SDS011;11734;51.046;13.778;2023-07-02T13:42:03;2.43;;;2.23;;
23129;SDS011;11734;51.046;13.778;2023-07-02T13:44:31;2.97;;;2.20;;
23129;SDS011;11734;51.046;13.778;2023-07-02T13:46:59;2.40;;;2.20;;
23129;SDS011;11734;51.046;13.778;2023-07-02T13:49:26;2.90;;;2.60;;
23129;SDS011;11734;51.046;13.778;2023-07-02T13:51:54;3.23;;;2.40;;
23129;SDS011;11734;51.046;13.778;2023-07-02T13:54:21;3.37;;;2.33;;
23129;SDS011;11734;51.046;13.778;2023-07-02T13:56:48;3.37;;;2.50;;
23129;SDS011;11734;51.046;13.778;2023-07-02T13:59:16;2.77;;;2.13;;
23129;SDS011;11734;51.046;13.778;2023-07-02T14:01:44;3.70;;;2.50;;
23129;SDS011;11734;51.046;13.778;2023-07-02T14:04:30;3.80;;;2.70;;
23129;SDS011;11734;51.046;13.778;2023-07-02T14:06:58;2.90;;;2.50;;
23129;SDS011;11734;51.046;13.778;2023-07-02T14:09:25;2.57;;;2.00;;
23129;SDS011;11734;51.046;13.778;2023-07-02T14:11:52;4.00;;;2.30;;
23129;SDS011;11734;51.046;13.778;2023-07-02T14:14:20;2.43;;;2.23;;
23129;SDS011;11734;51.046;13.778;2023-07-02T14:16:48;3.13;;;2.17;;
23129;SDS011;11734;51.046;13.778;2023-07-02T14:19:15;3.73;;;2.63;;
23129;SDS011;11734;51.046;13.778;2023-07-02T14:21:43;3.60;;;2.47;;
23129;SDS011;11734;51.046;13.778;2023-07-02T14:24:12;2.40;;;2.17;;
23129;SDS011;11734;51.046;13.778;2023-07-02T14:26:40;2.20;;;2.00;;
23129;SDS011;11734;51.046;13.778;2023-07-02T14:29:07;2.77;;;2.30;;
23129;SDS011;11734;51.046;13.778;2023-07-02T14:31:34;2.77;;;2.50;;
23129;SDS011;11734;51.046;13.778;2023-07-02T14:34:02;3.37;;;2.73;;
23129;SDS011;11734;51.046;13.778;2023-07-02T14:36:29;2.87;;;2.30;;
23129;SDS011;11734;51.046;13.778;2023-07-02T14:38:57;2.60;;;2.07;;
23129;SDS011;11734;51.046;13.778;2023-07-02T14:41:24;2.83;;;2.50;;
23129;SDS011;11734;51.046;13.778;2023-07-02T14:43:53;3.37;;;2.50;;
23129;SDS011;11734;51.046;13.778;2023-07-02T14:46:20;3.30;;;2.57;;
23129;SDS011;11734;51.046;13.778;2023-07-02T14:48:49;3.13;;;2.53;;